Time;durP1;ratioP1;P1;durP2;ratioP2;P2;SDS_P1;SDS_P2;PMS_P1;PMS_P2;Temp;Humidity;BMP_temperature;BMP_pressure;BME280_temperature;BME280_humidity;BME280_pressure;Samples;Min_cycle;Max_cycle;Signal;HPM_P1;HPM_P2
2022/05/08 00:00:29;;;;;;;7.88;6.25;;;;;;;12.23;88.58;101357.59;5061939;28;20407;-76
2022/05/08 00:02:55;;;;;;;8.63;6.32;;;;;;;12.23;88.65;101346.44;5084408;28;20028;-76
2022/05/08 00:05:21;;;;;;;8.38;6.60;;;;;;;12.26;88.77;101350.63;5106969;28;20541;-77
2022/05/08 00:07:47;;;;;;;8.23;6.22;;;;;;;12.26;89.13;101351.44;5086747;28;20032;-76
2022/05/08 00:10:12;;;;;;;10.45;6.90;;;;;;;12.24;88.68;101352.84;5101233;28;20024;-76
2022/05/08 00:12:38;;;;;;;8.40;5.90;;;;;;;12.23;88.16;101349.22;5084260;28;20035;-77
2022/05/08 00:15:03;;;;;;;10.30;6.22;;;;;;;12.25;88.08;101354.50;5106751;28;20031;-77
2022/05/08 00:17:34;;;;;;;8.77;6.15;;;;;;;12.26;88.18;101348.66;5083110;28;20024;-77
2022/05/08 00:20:08;;;;;;;7.53;5.95;;;;;;;12.26;88.00;101357.00;5071382;28;20028;-76
2022/05/08 00:22:34;;;;;;;8.57;5.85;;;;;;;12.27;87.72;101353.09;5100902;28;20122;-77
2022/05/08 00:25:00;;;;;;;10.15;6.20;;;;;;;12.25;87.82;101354.50;5104212;27;20056;-77
2022/05/08 00:27:25;;;;;;;8.48;6.13;;;;;;;12.23;87.95;101356.72;5101032;28;20420;-77
2022/05/08 00:29:51;;;;;;;6.78;5.40;;;;;;;12.19;87.87;101353.69;5103893;28;20028;-77
2022/05/08 00:32:16;;;;;;;7.65;5.72;;;;;;;12.18;87.61;101354.81;5080493;28;20039;-77
2022/05/08 00:34:42;;;;;;;9.10;5.82;;;;;;;12.16;87.76;101351.47;5063351;28;20031;-77
2022/05/08 00:37:07;;;;;;;10.38;6.15;;;;;;;12.18;88.05;101354.00;5068159;28;20055;-77
2022/05/08 00:39:33;;;;;;;9.05;6.20;;;;;;;12.13;87.88;101360.41;5077467;27;20028;-77
2022/05/08 00:42:00;;;;;;;7.55;5.80;;;;;;;12.10;87.43;101366.53;5079036;28;20031;-77
2022/05/08 00:44:26;;;;;;;8.57;5.85;;;;;;;12.06;87.23;101362.63;5082198;28;20056;-77
2022/05/08 00:46:51;;;;;;;7.85;5.55;;;;;;;12.04;87.89;101359.31;5073662;28;20472;-77
2022/05/08 00:49:17;;;;;;;8.00;6.05;;;;;;;12.01;87.74;101359.91;5065314;28;20032;-77
2022/05/08 00:51:48;;;;;;;8.60;5.45;;;;;;;12.01;87.71;101360.72;5080138;28;20064;-77
2022/05/08 00:54:14;;;;;;;7.45;6.10;;;;;;;11.98;87.98;101357.66;5083578;28;20036;-76
2022/05/08 00:56:40;;;;;;;10.15;6.85;;;;;;;11.99;88.38;101362.94;5090154;28;20564;-77
2022/05/08 00:59:06;;;;;;;8.38;6.55;;;;;;;11.96;88.96;101362.69;5068194;27;20543;-77
2022/05/08 01:01:31;;;;;;;8.27;6.60;;;;;;;11.98;89.07;101363.22;5087184;28;20043;-76
2022/05/08 01:03:57;;;;;;;9.57;7.25;;;;;;;11.98;89.97;101355.72;5080240;28;20077;-77
2022/05/08 01:06:22;;;;;;;10.20;7.60;;;;;;;11.99;89.86;101359.34;5110555;28;20058;-77
2022/05/08 01:08:48;;;;;;;10.80;7.85;;;;;;;11.95;90.71;101361.88;5063611;28;20023;-77
2022/05/08 01:11:14;;;;;;;11.75;8.15;;;;;;;11.95;91.30;101361.00;5092667;28;20035;-77
2022/05/08 01:13:41;;;;;;;11.38;7.97;;;;;;;11.94;90.82;101351.00;5097734;28;20035;-77
2022/05/08 01:16:13;;;;;;;12.13;8.18;;;;;;;11.93;91.16;101352.94;5045905;28;20084;-76
2022/05/08 01:18:38;;;;;;;13.63;8.77;;;;;;;11.92;91.18;101364.34;5067699;28;20028;-77
2022/05/08 01:21:05;;;;;;;10.73;8.32;;;;;;;11.91;91.37;101355.19;5094769;27;20037;-77
2022/05/08 01:23:31;;;;;;;11.40;8.20;;;;;;;11.90;91.41;101350.72;5085985;28;20032;-77
2022/05/08 01:25:57;;;;;;;11.93;8.70;;;;;;;11.88;91.17;101355.75;5099512;28;20411;-77
2022/05/08 01:28:23;;;;;;;12.90;9.05;;;;;;;11.85;91.31;101357.13;5098004;28;20020;-76
2022/05/08 01:30:53;;;;;;;10.27;7.93;;;;;;;11.85;91.30;101348.78;5067928;28;20028;-76
2022/05/08 01:33:18;;;;;;;11.05;8.07;;;;;;;11.90;91.05;101356.31;5076283;28;20030;-77
2022/05/08 01:35:44;;;;;;;12.00;8.05;;;;;;;11.88;90.87;101360.47;5068519;28;20445;-77
2022/05/08 01:38:11;;;;;;;11.60;8.27;;;;;;;11.79;91.12;101344.31;5078746;28;20035;-77
2022/05/08 01:40:36;;;;;;;10.75;8.30;;;;;;;11.76;90.95;101342.09;5082185;28;20054;-77
2022/05/08 01:43:02;;;;;;;14.52;8.98;;;;;;;11.73;91.11;101348.25;5062449;28;20032;-77
2022/05/08 01:45:28;;;;;;;12.50;9.02;;;;;;;11.67;91.11;101343.78;5079381;28;20036;-77
2022/05/08 01:50:38;;;;;;;11.25;7.95;;;;;;;11.59;90.57;101336.03;5081162;28;20035;-76
2022/05/08 01:53:04;;;;;;;12.05;8.20;;;;;;;11.56;90.73;101336.56;5090360;28;20091;-76
2022/05/08 01:55:29;;;;;;;12.20;8.68;;;;;;;11.53;90.62;101335.19;5104468;28;20091;-76
2022/05/08 01:57:55;;;;;;;12.85;8.65;;;;;;;11.48;90.93;101328.78;5096920;28;20044;-76
2022/05/08 02:00:23;;;;;;;12.77;8.70;;;;;;;11.41;91.41;101324.34;5045440;28;20049;-76
2022/05/08 02:02:49;;;;;;;11.35;8.25;;;;;;;11.41;91.08;101327.13;5092224;28;20032;-76
2022/05/08 02:05:21;;;;;;;14.02;9.07;;;;;;;11.40;91.40;101322.69;5078504;28;20031;-76
2022/05/08 02:07:47;;;;;;;12.65;9.30;;;;;;;11.38;91.77;101324.09;5090016;27;20390;-76
2022/05/08 02:10:13;;;;;;;13.15;9.50;;;;;;;11.33;91.87;101319.34;5066690;28;20028;-76
2022/05/08 02:12:39;;;;;;;13.98;10.32;;;;;;;11.32;91.67;101314.91;5074979;28;20051;-76
2022/05/08 02:15:06;;;;;;;16.13;10.85;;;;;;;11.26;92.26;101316.03;5083908;28;20032;-76
2022/05/08 02:17:31;;;;;;;12.98;9.80;;;;;;;11.19;91.75;101316.28;5075634;28;20036;-76
2022/05/08 02:19:57;;;;;;;12.93;8.90;;;;;;;11.12;91.80;101320.50;5061795;28;20503;-76
2022/05/08 02:22:22;;;;;;;12.80;9.20;;;;;;;11.14;91.50;101319.09;5061732;28;20046;-76
2022/05/08 02:24:48;;;;;;;12.20;8.90;;;;;;;11.13;91.74;101322.16;5089002;28;20538;-77
2022/05/08 02:27:13;;;;;;;13.35;9.82;;;;;;;11.09;91.70;101321.88;5090216;28;20152;-76
2022/05/08 02:29:39;;;;;;;13.95;9.25;;;;;;;11.11;91.35;101324.38;5085854;28;20519;-76
2022/05/08 02:32:05;;;;;;;13.73;9.23;;;;;;;11.06;91.18;101321.56;5078296;28;20032;-76
2022/05/08 02:34:30;;;;;;;12.27;8.43;;;;;;;11.04;91.64;101318.25;5078278;28;20036;-77
2022/05/08 02:36:56;;;;;;;12.65;9.20;;;;;;;10.99;91.26;101319.09;5067208;28;20036;-77
2022/05/08 02:39:21;;;;;;;13.07;8.93;;;;;;;10.99;91.31;101323.81;5078370;28;20027;-77
2022/05/08 02:41:47;;;;;;;11.93;9.25;;;;;;;10.97;91.35;101324.06;5091720;28;20241;-77
2022/05/08 02:44:12;;;;;;;13.55;9.57;;;;;;;10.94;91.37;101330.19;5070991;28;20076;-77
2022/05/08 02:46:38;;;;;;;14.60;9.80;;;;;;;10.91;91.14;101328.81;5061616;28;20103;-77
2022/05/08 02:49:04;;;;;;;13.30;8.98;;;;;;;10.90;90.99;101329.91;5074165;28;20475;-77
2022/05/08 02:51:29;;;;;;;12.57;9.80;;;;;;;10.87;91.18;101330.47;5078342;28;20563;-76
2022/05/08 02:53:55;;;;;;;12.55;9.02;;;;;;;10.86;91.00;101328.78;5076909;28;20043;-77
2022/05/08 02:59:04;;;;;;;13.35;9.48;;;;;;;10.80;91.52;101329.06;5095851;28;20043;-77
2022/05/08 03:01:30;;;;;;;13.38;9.77;;;;;;;10.76;91.61;101334.34;5084977;28;20028;-77
2022/05/08 03:03:55;;;;;;;10.93;8.30;;;;;;;10.74;91.53;101336.56;5087506;28;20393;-77
2022/05/08 03:06:21;;;;;;;13.20;9.40;;;;;;;10.70;92.10;101336.28;5068825;28;20434;-76
2022/05/08 03:08:49;;;;;;;11.35;9.02;;;;;;;10.70;91.77;101332.69;5080385;28;20030;-77
2022/05/08 03:11:28;;;;;;;12.95;9.52;;;;;;;10.66;91.86;101323.22;5082162;28;20052;-77
2022/05/08 03:13:54;;;;;;;14.48;9.88;;;;;;;10.64;92.36;101331.84;5109141;27;20036;-76
2022/05/08 03:16:20;;;;;;;14.13;10.15;;;;;;;10.63;92.59;101323.75;5073692;28;20036;-76
2022/05/08 03:18:45;;;;;;;13.43;10.23;;;;;;;10.59;92.83;101317.09;5080820;28;20047;-77
2022/05/08 03:21:12;;;;;;;12.98;9.25;;;;;;;10.57;92.84;101322.09;5092665;28;20081;-77
2022/05/08 03:23:41;;;;;;;13.23;9.23;;;;;;;10.59;92.75;101317.09;5095165;27;20052;-77
2022/05/08 03:26:07;;;;;;;13.18;9.55;;;;;;;10.56;92.80;101323.19;5084566;28;20558;-77
2022/05/08 03:28:33;;;;;;;13.73;9.65;;;;;;;10.50;92.80;101320.41;5081356;28;20028;-77
2022/05/08 03:30:59;;;;;;;16.02;11.23;;;;;;;10.51;92.68;101327.63;5081632;28;20099;-77
2022/05/08 03:33:28;;;;;;;15.15;10.80;;;;;;;10.47;93.31;101325.66;5093031;28;20054;-77
2022/05/08 03:35:53;;;;;;;15.23;11.38;;;;;;;10.43;93.33;101319.81;5099554;28;20032;-77
2022/05/08 03:38:18;;;;;;;15.20;11.27;;;;;;;10.44;93.44;101321.47;5081467;28;20024;-77
2022/05/08 03:40:44;;;;;;;14.10;9.90;;;;;;;10.45;93.31;101322.34;5099596;28;20032;-77
2022/05/08 03:43:10;;;;;;;15.63;10.52;;;;;;;10.45;93.11;101325.13;5099437;28;20036;-77
2022/05/08 03:45:35;;;;;;;12.63;9.32;;;;;;;10.46;92.69;101324.00;5081544;28;20096;-77
2022/05/08 03:48:01;;;;;;;15.23;10.40;;;;;;;10.40;92.84;101320.38;5099386;28;20034;-77
2022/05/08 03:50:27;;;;;;;13.68;9.95;;;;;;;10.39;93.18;101320.63;5078731;28;20028;-77
2022/05/08 03:52:52;;;;;;;16.73;10.73;;;;;;;10.39;93.30;101328.97;5090967;28;20031;-77
2022/05/08 03:55:18;;;;;;;21.10;13.43;;;;;;;10.33;95.04;101324.50;5090992;28;20040;-77
2022/05/08 03:57:44;;;;;;;18.58;12.68;;;;;;;10.32;94.79;101328.41;5097861;28;20056;-77
2022/05/08 04:00:10;;;;;;;20.33;14.60;;;;;;;10.21;96.42;101330.28;5097971;28;20119;-77
2022/05/08 04:02:36;;;;;;;24.58;14.48;;;;;;;10.22;95.98;101334.72;5093325;28;20056;-77
2022/05/08 04:05:02;;;;;;;34.55;21.25;;;;;;;10.10;100.00;101329.41;5105950;28;20024;-77
2022/05/08 04:07:29;;;;;;;34.58;20.27;;;;;;;9.99;100.00;101331.28;5101446;28;20088;-76
2022/05/08 04:09:54;;;;;;;30.85;19.13;;;;;;;9.97;100.00;101327.09;5123127;28;20503;-77
2022/05/08 04:12:20;;;;;;;36.78;22.50;;;;;;;9.93;100.00;101318.50;5100533;28;20027;-76
2022/05/08 04:14:45;;;;;;;33.00;19.77;;;;;;;9.92;100.00;101325.16;5097290;28;20035;-77
2022/05/08 04:17:10;;;;;;;36.75;21.63;;;;;;;9.92;100.00;101324.28;5111227;28;20031;-77
2022/05/08 04:19:37;;;;;;;36.38;21.92;;;;;;;9.94;100.00;101322.94;5052922;28;20435;-77
2022/05/08 04:24:47;;;;;;;42.60;22.50;;;;;;;9.89;100.00;101320.16;5079412;28;20115;-77
2022/05/08 04:27:13;;;;;;;48.40;26.95;;;;;;;9.88;100.00;101324.00;5109277;28;20019;-77
2022/05/08 04:29:38;;;;;;;50.92;26.70;;;;;;;9.81;100.00;101317.88;5104947;28;20085;-77
2022/05/08 04:32:04;;;;;;;49.22;27.55;;;;;;;9.84;100.00;101322.91;5097497;28;20480;-77
2022/05/08 04:34:29;;;;;;;47.72;26.08;;;;;;;9.83;100.00;101323.97;5097458;28;20032;-77
2022/05/08 04:36:55;;;;;;;54.53;29.10;;;;;;;9.84;100.00;101323.72;5097307;28;20032;-77
2022/05/08 04:39:20;;;;;;;48.15;26.88;;;;;;;9.89;100.00;101325.69;5079487;28;20032;-77
2022/05/08 04:41:46;;;;;;;55.33;28.17;;;;;;;9.87;100.00;101329.84;5079049;28;20065;-77
2022/05/08 04:44:11;;;;;;;58.05;30.77;;;;;;;9.85;100.00;101330.94;5079300;28;20656;-76
2022/05/08 04:46:37;;;;;;;50.35;28.65;;;;;;;9.87;100.00;101329.84;5097268;28;20031;-77
2022/05/08 04:49:03;;;;;;;59.72;30.80;;;;;;;9.90;100.00;101329.31;5097454;28;20032;-77
2022/05/08 04:51:28;;;;;;;57.58;30.92;;;;;;;9.92;100.00;101329.84;5078946;28;20458;-77
2022/05/08 04:53:54;;;;;;;60.60;30.73;;;;;;;9.91;100.00;101334.56;5098002;28;20035;-77
2022/05/08 04:56:19;;;;;;;62.75;33.05;;;;;;;9.92;100.00;101340.94;5027437;28;1497870;-77
2022/05/08 04:58:45;;;;;;;62.22;31.98;;;;;;;9.91;100.00;101334.56;5123279;27;20076;-77
2022/05/08 05:01:10;;;;;;;58.50;30.65;;;;;;;9.99;100.00;101342.38;5122891;27;20039;-77
2022/05/08 05:03:36;;;;;;;54.22;28.77;;;;;;;10.09;100.00;101340.78;5127649;27;20063;-77
2022/05/08 05:06:07;;;;;;;65.45;33.60;;;;;;;10.06;100.00;101342.16;5086281;28;20055;-77
2022/05/08 05:08:35;;;;;;;57.28;30.10;;;;;;;10.11;100.00;101346.88;5092752;28;20051;-77
2022/05/08 05:11:01;;;;;;;52.95;28.73;;;;;;;10.17;100.00;101343.88;5077240;28;20392;-77
2022/05/08 05:13:27;;;;;;;56.63;29.70;;;;;;;10.20;100.00;101359.16;5079732;28;20019;-77
2022/05/08 05:15:52;;;;;;;51.65;28.27;;;;;;;10.28;100.00;101353.94;5103464;28;20026;-77
2022/05/08 05:18:18;;;;;;;53.42;30.60;;;;;;;10.32;100.00;101362.56;5112503;27;20027;-77
2022/05/08 05:20:45;;;;;;;54.42;30.55;;;;;;;10.33;100.00;101367.00;5083571;28;20059;-77
2022/05/08 05:23:11;;;;;;;58.83;31.83;;;;;;;10.36;100.00;101371.16;5104825;28;20039;-77
2022/05/08 05:25:36;;;;;;;59.47;31.95;;;;;;;10.37;100.00;101376.47;5107128;27;20058;-77
2022/05/08 05:28:02;;;;;;;47.88;27.98;;;;;;;10.42;100.00;101373.72;5116207;28;20020;-77
2022/05/08 05:30:27;;;;;;;62.70;31.88;;;;;;;10.40;100.00;101367.59;5082765;28;20039;-77
2022/05/08 05:32:53;;;;;;;51.25;29.50;;;;;;;10.46;100.00;101379.53;5104925;28;20564;-77
2022/05/08 05:35:19;;;;;;;64.20;32.40;;;;;;;10.48;100.00;101380.13;5097264;28;20077;-76
2022/05/08 05:37:44;;;;;;;53.05;29.17;;;;;;;10.50;100.00;101386.22;5096985;28;20028;-77
2022/05/08 05:40:11;;;;;;;56.47;30.65;;;;;;;10.54;100.00;101381.78;5079229;28;20028;-74
2022/05/08 05:42:36;;;;;;;88.03;40.90;;;;;;;10.56;100.00;101384.28;5097442;28;20031;-73
2022/05/08 05:45:02;;;;;;;247.68;98.50;;;;;;;10.58;100.00;101385.69;5096883;28;20028;-74
2022/05/08 05:50:12;;;;;;;298.30;107.47;;;;;;;10.70;100.00;101388.25;5078765;28;20035;-75
2022/05/08 05:52:37;;;;;;;195.05;72.85;;;;;;;10.74;100.00;101392.97;5086620;28;20039;-75
2022/05/08 05:55:04;;;;;;;131.35;50.63;;;;;;;10.78;100.00;101389.63;5108076;28;20031;-74
2022/05/08 05:57:33;;;;;;;108.22;44.08;;;;;;;10.82;100.00;101388.81;5080013;28;20125;-75
2022/05/08 05:59:59;;;;;;;85.88;37.00;;;;;;;10.85;100.00;101393.81;5096868;28;20472;-75
2022/05/08 06:02:24;;;;;;;90.45;36.90;;;;;;;10.92;100.00;101397.19;5113067;27;20091;-75
2022/05/08 06:04:50;;;;;;;96.15;39.92;;;;;;;10.97;100.00;101396.34;5109374;28;20074;-75
2022/05/08 06:07:16;;;;;;;78.07;35.22;;;;;;;11.01;100.00;101402.22;5098075;28;20503;-74
2022/05/08 06:09:41;;;;;;;73.30;34.00;;;;;;;11.03;100.00;101405.53;5098837;28;20055;-75
2022/05/08 06:12:07;;;;;;;67.25;31.35;;;;;;;11.04;100.00;101408.03;5084141;28;20035;-75
2022/05/08 06:14:32;;;;;;;73.50;32.17;;;;;;;11.13;100.00;101400.00;5074117;28;20036;-75
2022/05/08 06:16:58;;;;;;;71.40;33.08;;;;;;;11.16;100.00;101405.00;5083830;28;20039;-74
2022/05/08 06:19:23;;;;;;;76.07;34.05;;;;;;;11.17;100.00;101412.22;5078388;28;20031;-74
2022/05/08 06:21:49;;;;;;;65.57;31.27;;;;;;;11.21;100.00;101405.00;5107049;28;20039;-74
2022/05/08 06:24:15;;;;;;;68.30;33.05;;;;;;;11.26;100.00;101409.75;5078389;28;20024;-74
2022/05/08 06:26:40;;;;;;;66.25;31.52;;;;;;;11.30;100.00;101413.63;5093372;28;20034;-74
2022/05/08 06:29:06;;;;;;;68.60;32.72;;;;;;;11.31;100.00;101410.59;5078615;28;20043;-74
2022/05/08 06:31:31;;;;;;;75.95;34.15;;;;;;;11.37;100.00;101408.63;5061697;28;20047;-74
2022/05/08 06:33:56;;;;;;;69.18;33.05;;;;;;;11.43;100.00;101412.25;5061899;28;20035;-74
2022/05/08 06:36:22;;;;;;;72.82;34.53;;;;;;;11.46;100.00;101415.31;5077678;28;20093;-75
2022/05/08 06:38:48;;;;;;;76.50;35.28;;;;;;;11.51;100.00;101422.84;5078647;28;20040;-75
2022/05/08 06:41:13;;;;;;;76.93;33.65;;;;;;;11.56;100.00;101415.31;5057952;28;20503;-75
2022/05/08 06:43:40;;;;;;;67.57;32.50;;;;;;;11.62;100.00;101413.38;5078370;28;20059;-74
2022/05/08 06:46:07;;;;;;;82.68;38.05;;;;;;;11.66;100.00;101416.41;5109872;28;20051;-74
2022/05/08 06:48:32;;;;;;;75.90;36.15;;;;;;;11.70;100.00;101418.38;5050012;28;20024;-74
2022/05/08 06:50:58;;;;;;;80.78;36.03;;;;;;;11.76;100.00;101425.59;5091464;28;20096;-74
2022/05/08 06:53:23;;;;;;;74.18;34.65;;;;;;;11.83;100.00;101419.72;5072309;28;20028;-75
2022/05/08 06:55:49;;;;;;;77.75;35.65;;;;;;;11.89;100.00;101423.38;5075114;28;20075;-74
2022/05/08 06:58:15;;;;;;;73.45;35.35;;;;;;;11.92;100.00;101434.78;5119700;28;20069;-74
2022/05/08 07:03:24;;;;;;;75.25;35.40;;;;;;;12.05;100.00;101438.94;5066683;28;20032;-74
2022/05/08 07:05:50;;;;;;;76.80;35.88;;;;;;;12.10;100.00;101433.38;5096140;28;20058;-73
2022/05/08 07:08:15;;;;;;;75.05;36.45;;;;;;;12.17;100.00;101435.84;5105809;28;20024;-73
2022/05/08 07:10:41;;;;;;;72.45;34.85;;;;;;;12.24;100.00;101434.44;5095462;28;20032;-73
2022/05/08 07:13:07;;;;;;;71.45;34.75;;;;;;;12.31;100.00;101431.34;5096008;28;20053;-73
2022/05/08 07:15:33;;;;;;;76.00;35.55;;;;;;;12.36;100.00;101427.72;5074441;28;20063;-74
2022/05/08 07:17:58;;;;;;;77.55;35.70;;;;;;;12.43;100.00;101428.25;5062439;28;20039;-73
2022/05/08 07:20:24;;;;;;;77.13;35.47;;;;;;;12.49;100.00;101419.59;5094971;28;20028;-73
2022/05/08 07:22:49;;;;;;;71.63;35.22;;;;;;;12.55;100.00;101420.41;5061309;28;20028;-73
2022/05/08 07:25:15;;;;;;;69.05;34.97;;;;;;;12.64;100.00;101424.25;5081064;28;20499;-73
2022/05/08 07:27:42;;;;;;;71.78;35.78;;;;;;;12.74;100.00;101429.78;5116744;28;20023;-74
2022/05/08 07:30:08;;;;;;;69.38;34.85;;;;;;;12.83;100.00;101426.41;5081299;28;20035;-74
2022/05/08 07:32:34;;;;;;;70.93;34.85;;;;;;;12.90;100.00;101427.75;5068282;28;20110;-74
2022/05/08 07:37:43;;;;;;;74.25;35.85;;;;;;;13.08;100.00;101429.03;5085877;28;20054;-73
2022/05/08 07:40:10;;;;;;;74.45;35.13;;;;;;;13.18;100.00;101426.19;5057843;28;20114;-72
2022/05/08 07:42:36;;;;;;;66.75;32.78;;;;;;;13.29;100.00;101426.13;5109544;28;20035;-71
2022/05/08 07:45:02;;;;;;;66.28;34.83;;;;;;;13.40;100.00;101431.38;5095698;28;20020;-79
2022/05/08 07:47:27;;;;;;;65.10;33.58;;;;;;;13.53;100.00;101435.44;5055173;28;20024;-78
2022/05/08 07:49:56;;;;;;;68.20;34.90;;;;;;;13.67;100.00;101443.16;5093123;28;20031;-77
2022/05/08 07:52:21;;;;;;;61.10;31.55;;;;;;;13.78;100.00;101441.94;5104716;28;20031;-73
2022/05/08 07:54:47;;;;;;;66.07;32.80;;;;;;;13.92;100.00;101440.13;5073461;27;20019;-73
2022/05/08 07:57:13;;;;;;;69.40;34.25;;;;;;;14.06;100.00;101446.66;5087438;28;20048;-73
2022/05/08 07:59:38;;;;;;;63.75;32.50;;;;;;;14.20;100.00;101448.78;5060180;28;20057;-73
2022/05/08 08:02:04;;;;;;;65.18;33.63;;;;;;;14.30;100.00;101455.09;5048050;28;20036;-73
2022/05/08 08:04:29;;;;;;;59.88;30.55;;;;;;;14.39;100.00;101448.84;5061031;28;20016;-73
2022/05/08 08:06:55;;;;;;;63.33;33.35;;;;;;;14.49;99.62;101449.56;5072935;28;20460;-73
2022/05/08 08:09:20;;;;;;;61.08;32.97;;;;;;;14.60;99.20;101452.25;5069032;28;20024;-73
2022/05/08 08:11:47;;;;;;;60.15;33.40;;;;;;;14.69;98.49;101458.88;5064095;28;20115;-73
2022/05/08 08:14:13;;;;;;;56.53;30.25;;;;;;;14.77;97.21;101455.41;5064410;28;20028;-74
2022/05/08 08:16:39;;;;;;;60.25;31.92;;;;;;;14.85;97.37;101448.28;5056081;28;20034;-73
2022/05/08 08:19:05;;;;;;;60.97;32.20;;;;;;;14.94;98.29;101452.13;5053113;28;20036;-74
2022/05/08 08:21:30;;;;;;;61.63;32.65;;;;;;;15.02;96.73;101454.25;5088860;28;20024;-73
2022/05/08 08:23:56;;;;;;;60.78;31.30;;;;;;;15.09;96.53;101459.44;5096466;28;20031;-73
2022/05/08 08:26:21;;;;;;;60.33;32.13;;;;;;;15.16;96.53;101459.91;5110304;28;20027;-73
2022/05/08 08:28:47;;;;;;;62.05;32.53;;;;;;;15.18;95.33;101449.22;5063817;28;20024;-74
2022/05/08 08:31:12;;;;;;;61.80;31.90;;;;;;;15.28;94.74;101457.47;5055210;28;20024;-74
2022/05/08 08:33:38;;;;;;;61.20;33.70;;;;;;;15.35;94.90;101451.50;5080515;28;20077;-74
2022/05/08 08:36:05;;;;;;;56.97;30.80;;;;;;;15.47;94.47;101459.47;5073188;28;20515;-74
2022/05/08 08:38:30;;;;;;;61.33;33.05;;;;;;;15.57;95.25;101459.28;5118795;28;20024;-74
2022/05/08 08:40:56;;;;;;;57.10;31.50;;;;;;;15.69;93.82;101456.06;5080504;28;20035;-74
2022/05/08 08:43:22;;;;;;;59.53;31.85;;;;;;;15.79;93.42;101451.09;5116832;28;20077;-72
2022/05/08 08:48:34;;;;;;;56.20;31.52;;;;;;;16.04;91.99;101451.78;5100461;28;20019;-71
2022/05/08 08:51:00;;;;;;;52.92;30.88;;;;;;;16.17;90.58;101436.97;5105795;27;20096;-71
2022/05/08 08:53:26;;;;;;;52.25;29.98;;;;;;;16.31;90.04;101449.03;5118369;28;20059;-71
2022/05/08 08:55:51;;;;;;;50.55;28.52;;;;;;;16.43;88.19;101450.47;5100190;28;20027;-71
2022/05/08 08:58:17;;;;;;;54.22;29.92;;;;;;;16.52;87.98;101451.44;5100421;28;20396;-71
2022/05/08 09:00:43;;;;;;;46.17;26.65;;;;;;;16.60;85.99;101453.47;5065149;28;20126;-70
2022/05/08 09:03:09;;;;;;;53.22;30.40;;;;;;;16.66;85.69;101449.47;5083453;28;20045;-70
2022/05/08 09:05:35;;;;;;;49.35;28.92;;;;;;;16.74;86.73;101448.72;5062782;28;20154;-71
2022/05/08 09:08:01;;;;;;;52.60;30.00;;;;;;;16.89;86.36;101446.75;5046451;28;20078;-71
2022/05/08 09:10:28;;;;;;;53.40;30.38;;;;;;;16.95;85.12;101449.13;5099532;28;20031;-71
2022/05/08 09:12:56;;;;;;;52.55;30.77;;;;;;;17.11;85.24;101446.81;5082536;28;20055;-71
2022/05/08 09:15:25;;;;;;;51.30;29.90;;;;;;;17.31;84.64;101439.91;5115118;28;20020;-71
2022/05/08 09:17:53;;;;;;;48.13;28.13;;;;;;;17.52;83.91;101436.56;5099023;28;20059;-71
2022/05/08 09:20:34;;;;;;;48.10;28.50;;;;;;;17.74;83.11;101432.94;5082797;28;20035;-75
2022/05/08 09:23:16;;;;;;;53.10;29.38;;;;;;;17.91;82.79;101435.06;5082158;28;20055;-75
2022/05/08 09:25:44;;;;;;;46.10;28.30;;;;;;;18.00;80.33;101433.97;5083901;28;20035;-76
2022/05/08 09:28:16;;;;;;;48.95;28.08;;;;;;;18.15;79.02;101432.72;5117851;28;20031;-76
2022/05/08 09:30:56;;;;;;;42.22;26.05;;;;;;;18.26;77.75;101430.47;5117856;28;20527;-76
2022/05/08 09:33:29;;;;;;;46.08;28.77;;;;;;;18.37;77.99;101431.84;5117758;28;20030;-75
2022/05/08 09:35:54;;;;;;;45.92;27.98;;;;;;;18.48;77.06;101433.19;5117569;28;20036;-76
2022/05/08 09:38:20;;;;;;;48.83;28.85;;;;;;;18.60;76.83;101426.13;5082462;28;20030;-76
2022/05/08 09:40:46;;;;;;;48.47;28.27;;;;;;;18.68;76.79;101420.50;5117387;28;20051;-76
2022/05/08 09:43:28;;;;;;;45.75;27.80;;;;;;;18.85;77.07;101424.56;5099339;28;20031;-76
2022/05/08 09:45:57;;;;;;;42.43;26.07;;;;;;;19.01;76.58;101410.84;5099302;28;20084;-75
2022/05/08 09:48:25;;;;;;;46.67;27.88;;;;;;;19.18;76.25;101416.50;5086330;28;20032;-76
2022/05/08 09:50:51;;;;;;;42.40;26.33;;;;;;;19.43;74.88;101418.47;5098852;28;20027;-75
2022/05/08 09:53:18;;;;;;;39.55;25.63;;;;;;;19.65;74.78;101425.09;5117261;28;20129;-76
2022/05/08 09:55:44;;;;;;;40.42;25.25;;;;;;;19.84;72.65;101405.84;5061611;28;20095;-75
2022/05/08 09:58:10;;;;;;;39.67;26.83;;;;;;;20.05;73.25;101405.13;5091776;28;20484;-76
2022/05/08 10:00:39;;;;;;;35.83;22.92;;;;;;;20.24;73.25;101402.72;5098929;28;20023;-76
2022/05/08 10:03:06;;;;;;;43.50;26.52;;;;;;;20.41;72.86;101407.47;5117202;28;20576;-75
2022/05/08 10:05:32;;;;;;;44.25;27.20;;;;;;;20.52;72.10;101413.56;5116920;28;20032;-76
2022/05/08 10:07:59;;;;;;;38.72;25.70;;;;;;;20.63;69.22;101411.22;5098640;28;20168;-75
2022/05/08 10:19:46;;;;;;;35.45;23.73;;;;;;;21.22;68.92;101396.19;5108617;27;20530;-79
2022/05/08 10:22:14;;;;;;;39.88;25.77;;;;;;;21.30;66.96;101395.28;5055381;28;20084;-70
2022/05/08 10:24:53;;;;;;;36.70;22.10;;;;;;;21.38;65.44;101389.59;5081702;28;20019;-71
2022/05/08 10:27:26;;;;;;;39.72;25.63;;;;;;;21.40;63.42;101390.06;5065664;28;20108;-70
2022/05/08 10:29:54;;;;;;;39.47;27.42;;;;;;;21.45;64.11;101391.00;5113278;28;20059;-72
2022/05/08 10:32:34;;;;;;;41.67;26.67;;;;;;;21.41;66.03;101393.72;5112475;27;20040;-72
2022/05/08 10:35:16;;;;;;;37.25;24.50;;;;;;;21.46;65.35;101396.34;5103427;28;20030;-72
2022/05/08 10:37:41;;;;;;;36.83;24.15;;;;;;;21.41;65.71;101393.72;5077482;28;20043;-72
2022/05/08 10:40:22;;;;;;;38.30;26.02;;;;;;;21.43;64.28;101391.38;5091113;28;20439;-72
2022/05/08 10:42:48;;;;;;;37.10;23.95;;;;;;;21.43;63.83;101394.19;5093494;28;20067;-72
2022/05/08 10:45:32;;;;;;;32.22;21.25;;;;;;;21.59;64.78;101397.19;5120135;28;20024;-72
2022/05/08 10:48:04;;;;;;;32.35;21.95;;;;;;;21.70;64.96;101401.22;5116595;28;20491;-71
2022/05/08 10:50:29;;;;;;;33.55;22.00;;;;;;;21.86;65.15;101398.56;5116356;28;20391;-71
2022/05/08 10:52:55;;;;;;;32.15;21.67;;;;;;;21.95;63.66;101390.81;5096863;28;20076;-76
2022/05/08 10:55:20;;;;;;;42.80;30.42;;;;;;;22.04;62.42;101397.22;5118243;28;20088;-76
2022/05/08 10:57:51;;;;;;;42.25;29.75;;;;;;;22.07;60.65;101395.69;5061243;28;20058;-76
2022/05/08 11:00:18;;;;;;;42.63;30.58;;;;;;;22.16;60.24;101399.22;5096689;28;20031;-76
2022/05/08 11:02:43;;;;;;;51.42;36.53;;;;;;;22.04;60.24;101396.41;5112351;28;20035;-76
2022/05/08 11:05:13;;;;;;;37.28;25.98;;;;;;;22.10;62.43;101389.31;5078112;28;20453;-76
2022/05/08 11:07:40;;;;;;;33.83;23.88;;;;;;;22.16;62.84;101389.94;5077632;28;20028;-76
2022/05/08 11:10:26;;;;;;;38.72;23.17;;;;;;;22.24;61.52;101386.19;5116163;28;20032;-75
2022/05/08 11:13:11;;;;;;;39.55;24.65;;;;;;;22.25;61.82;101393.50;5081288;28;20044;-76
2022/05/08 11:15:46;;;;;;;31.02;20.65;;;;;;;22.39;62.16;101393.97;5104535;28;20054;-77
2022/05/08 11:18:12;;;;;;;48.63;31.60;;;;;;;22.50;60.50;101389.50;5099539;28;20032;-76
2022/05/08 11:20:43;;;;;;;39.03;24.75;;;;;;;22.61;59.42;101383.34;5116124;28;20111;-75
2022/05/08 11:23:12;;;;;;;36.80;24.17;;;;;;;22.60;61.94;101382.53;5123990;27;20037;-75
2022/05/08 11:25:38;;;;;;;36.47;23.58;;;;;;;22.72;60.43;101381.69;5105934;28;20034;-75
2022/05/08 11:28:03;;;;;;;31.63;21.65;;;;;;;22.88;61.75;101381.78;5076182;28;20420;-75
2022/05/08 11:30:31;;;;;;;24.08;17.45;;;;;;;23.01;58.92;101377.75;5110201;27;20027;-75
2022/05/08 11:36:08;;;;;;;27.85;18.60;;;;;;;23.29;58.29;101363.66;5119881;28;20049;-75
2022/05/08 11:38:44;;;;;;;24.63;16.67;;;;;;;23.46;56.57;101361.66;5118197;28;20110;-75